Valdez, AK

5:36 PM AKDT on July 28, 2016 (GMT -0800)
Valdez | | Change Station

Elev 121 ft 61.13 °N, 146.25 °W | Updated 20 minutes ago

Mostly Cloudy
Mostly Cloudy
61 °F
Feels Like 61 °F
N
8
Wind Variable Wind from SW

Today
High -- | Low -- °F
--% Chance of Precip.
Yesterday
High -- | Low -- °F
Precip. -- in
Pressure 29.96 in
Visibility 10.0 miles
Clouds Few 1500 ft
Mostly Cloudy 7500 ft
Mostly Cloudy 25000 ft
Dew Point 52 °F
Humidity 72%
Rainfall 0.04 in
Snow Depth Not available.
5:09 AM 10:31 PM
Waning Crescent, 27% visible
METAR PAVD 290116Z 22007KT 200V260 10SM FEW015 BKN075 BKN250 16/11 A2996 RMK AO1 0047Z WEA: NONE TWR WND 19006KT
Pressure 29.96 in
Visibility 10.0 miles
Clouds Few 1500 ft
Mostly Cloudy 7500 ft
Mostly Cloudy 25000 ft
Dew Point 52 °F
Humidity 72%
Rainfall 0.04 in
Snow Depth Not available.
5:09 AM 10:31 PM
Waning Crescent, 27% visible
METAR PAVD 290116Z 22007KT 200V260 10SM FEW015 BKN075 BKN250 16/11 A2996 RMK AO1 0047Z WEA: NONE TWR WND 19006KT

10-Day Weather Forecast

Almanac

Astronomy

Jul. 28, 2016 Rise Set
Actual Time
Civil Twilight
Nautical Twilight
Astronomical Twilight
Moon
Length of Visible Light
Length of Day
Tomorrow will be .
, % of the Moon is Illuminated

Today's Extremes

State Highs State Lows

Community

WunderPhotos

Upload Photos

1,928,251 photos uploaded!

WunderBlog® & News

Nearby

Air Quality

  Air Quality AQ Index Pollutant
Not available.

Snow Depth

Station Depth Elevation

Earthquake Activity

City Distance Mag. Time & Date
Minimum magnitude displayed is 2.5.

Coastal Water Temperatures

Place Temperature

Stations

Nearby Weather Stations

Station Location Temp. Windchill Dew Point Humidity Wind Precip. Elev Updated Type
                   

Watches & Warnings

There are currently no watches in effect.